Time;durP1;ratioP1;P1;durP2;ratioP2;P2;SDS_P1;SDS_P2;PMS_P1;PMS_P2;Temp;Humidity;BMP_temperature;BMP_pressure;BME280_temperature;BME280_humidity;BME280_pressure;Samples;Min_cycle;Max_cycle;Signal;HPM_P1;HPM_P2
2022/12/06 00:01:39;;;;;;;2.33;2.20;;;3.10;99.90;;;;;;4954899;28;20229;-95
2022/12/06 00:04:11;;;;;;;2.45;2.05;;;3.10;99.90;;;;;;4954823;28;20237;-95
2022/12/06 00:06:42;;;;;;;2.17;2.08;;;3.10;99.90;;;;;;4955026;28;20220;-95
2022/12/06 00:09:17;;;;;;;2.30;2.17;;;3.10;99.90;;;;;;4955530;28;20251;-95
2022/12/06 00:11:45;;;;;;;2.33;2.13;;;3.10;99.90;;;;;;4958429;28;20307;-95
2022/12/06 00:14:14;;;;;;;1.88;1.77;;;3.00;99.90;;;;;;4962523;28;20248;-94
2022/12/06 00:16:42;;;;;;;3.78;2.55;;;2.90;99.90;;;;;;4962020;28;20260;-94
2022/12/06 00:19:15;;;;;;;1.48;1.38;;;3.00;99.90;;;;;;4957235;28;20224;-95
2022/12/06 00:21:43;;;;;;;2.00;1.80;;;2.90;99.90;;;;;;4954808;28;20224;-96
2022/12/06 00:24:14;;;;;;;1.60;1.50;;;2.90;99.90;;;;;;4954889;28;20288;-94
2022/12/06 00:26:45;;;;;;;2.20;2.00;;;2.90;99.90;;;;;;4954761;28;20217;-95
2022/12/06 00:29:16;;;;;;;1.35;1.25;;;2.90;99.90;;;;;;4955241;28;20221;-94
2022/12/06 00:31:45;;;;;;;1.92;1.58;;;2.90;99.90;;;;;;4955286;28;20252;-95
2022/12/06 00:34:15;;;;;;;1.90;1.52;;;2.90;99.90;;;;;;4955352;28;20327;-95
2022/12/06 00:36:44;;;;;;;1.60;1.50;;;2.90;99.90;;;;;;4954843;28;20280;-95
2022/12/06 00:39:14;;;;;;;1.38;1.35;;;2.90;99.90;;;;;;4954952;28;20214;-95
2022/12/06 00:41:44;;;;;;;1.50;1.38;;;2.90;99.90;;;;;;4955157;28;20260;-95
2022/12/06 00:44:12;;;;;;;1.17;1.13;;;3.00;99.90;;;;;;4955038;28;20229;-94
2022/12/06 00:46:41;;;;;;;0.93;0.88;;;2.90;99.90;;;;;;4954826;28;20216;-95
2022/12/06 00:49:10;;;;;;;1.30;1.20;;;2.90;99.90;;;;;;4955062;28;20241;-94
2022/12/06 00:51:40;;;;;;;1.65;1.23;;;2.90;99.90;;;;;;4955309;28;20240;-95
2022/12/06 00:54:11;;;;;;;1.27;1.17;;;2.90;99.90;;;;;;4954955;28;20233;-95
2022/12/06 00:56:39;;;;;;;0.98;0.98;;;3.00;99.90;;;;;;4954910;28;20244;-94
2022/12/06 00:59:08;;;;;;;1.13;1.05;;;3.00;99.90;;;;;;4955197;28;20221;-95
2022/12/06 01:01:36;;;;;;;0.77;0.77;;;3.10;99.90;;;;;;4954627;28;20296;-94
2022/12/06 01:04:08;;;;;;;0.52;0.52;;;3.10;99.90;;;;;;4954411;28;20229;-90
2022/12/06 01:06:39;;;;;;;1.02;1.02;;;3.10;99.90;;;;;;4953857;28;20308;-91
2022/12/06 01:09:09;;;;;;;1.17;1.08;;;3.10;99.90;;;;;;4953820;28;20209;-90
2022/12/06 01:11:37;;;;;;;0.93;0.93;;;3.10;99.90;;;;;;4953328;28;20280;-90
2022/12/06 01:14:06;;;;;;;0.85;0.85;;;3.10;99.90;;;;;;4953393;28;20316;-91
2022/12/06 01:16:35;;;;;;;0.80;0.80;;;3.10;99.90;;;;;;4954143;28;20245;-90
2022/12/06 01:19:05;;;;;;;0.90;0.90;;;3.10;99.90;;;;;;4954061;28;20285;-89
2022/12/06 01:21:34;;;;;;;2.47;1.48;;;3.10;99.90;;;;;;4953531;28;20236;-90
2022/12/06 01:24:05;;;;;;;1.27;1.17;;;3.10;99.90;;;;;;4953387;28;20229;-91
2022/12/06 01:26:35;;;;;;;1.33;1.30;;;3.10;99.90;;;;;;4953791;28;20224;-90
2022/12/06 01:29:04;;;;;;;3.33;1.70;;;3.20;99.90;;;;;;4953368;28;20281;-91
2022/12/06 01:31:34;;;;;;;3.28;2.20;;;3.20;99.90;;;;;;4953633;28;20220;-90
2022/12/06 01:34:07;;;;;;;1.63;1.52;;;3.20;99.90;;;;;;4953215;28;20236;-91
2022/12/06 01:36:36;;;;;;;1.10;1.10;;;3.20;99.90;;;;;;4953139;28;20221;-90
2022/12/06 01:39:09;;;;;;;1.10;1.10;;;3.30;99.90;;;;;;4952819;28;20213;-89
2022/12/06 01:41:38;;;;;;;1.80;1.70;;;3.30;99.90;;;;;;4953476;28;20233;-91
2022/12/06 01:44:08;;;;;;;5.40;2.70;;;3.30;99.90;;;;;;4953193;28;20325;-90
2022/12/06 01:46:39;;;;;;;1.63;1.52;;;3.30;99.90;;;;;;4953223;28;20213;-90
2022/12/06 01:49:17;;;;;;;1.60;1.50;;;3.40;99.90;;;;;;4952391;28;20240;-91
2022/12/06 01:51:49;;;;;;;3.15;2.63;;;3.40;99.90;;;;;;4955138;29;20209;-90
2022/12/06 01:54:20;;;;;;;5.32;4.47;;;3.40;99.90;;;;;;4955745;28;20256;-91
2022/12/06 01:56:51;;;;;;;4.30;3.63;;;3.40;99.90;;;;;;4955397;29;20209;-89
2022/12/06 01:59:20;;;;;;;1.70;1.60;;;3.40;99.90;;;;;;4955711;29;20212;-92
2022/12/06 02:01:48;;;;;;;1.67;1.58;;;3.40;99.90;;;;;;4955561;29;20256;-91
2022/12/06 02:04:17;;;;;;;1.70;1.60;;;3.50;99.90;;;;;;4955028;28;20233;-92
2022/12/06 02:06:46;;;;;;;1.50;1.40;;;3.50;99.90;;;;;;4954875;29;20300;-92
2022/12/06 02:09:16;;;;;;;1.27;1.27;;;3.40;99.90;;;;;;4955225;29;20268;-91
2022/12/06 02:11:47;;;;;;;2.00;1.80;;;3.40;99.90;;;;;;4954890;29;20236;-90
2022/12/06 02:14:18;;;;;;;2.58;2.38;;;3.50;99.90;;;;;;4955147;28;20311;-90
2022/12/06 02:16:57;;;;;;;4.03;3.45;;;3.50;99.90;;;;;;4954680;29;20212;-90
2022/12/06 02:19:51;;;;;;;4.93;3.38;;;3.50;99.90;;;;;;4955083;29;20208;-89
2022/12/06 02:22:28;;;;;;;1.73;1.63;;;3.50;99.90;;;;;;4954713;29;20225;-90
2022/12/06 02:25:32;;;;;;;1.73;1.63;;;3.50;99.90;;;;;;4954886;28;20229;-90
2022/12/06 02:28:34;;;;;;;1.73;1.63;;;3.50;99.90;;;;;;4954862;28;20224;-90
2022/12/06 02:31:10;;;;;;;2.00;1.80;;;3.50;99.90;;;;;;4954818;29;20201;-91
2022/12/06 02:33:45;;;;;;;1.58;1.48;;;3.50;99.90;;;;;;4954501;28;20229;-90
2022/12/06 02:36:21;;;;;;;2.83;1.55;;;3.50;99.90;;;;;;4955251;29;20205;-90
2022/12/06 02:38:53;;;;;;;2.13;1.88;;;3.60;99.90;;;;;;4954649;29;20307;-90
2022/12/06 02:41:27;;;;;;;2.63;1.92;;;3.60;99.90;;;;;;4954504;28;20295;-91
2022/12/06 02:44:00;;;;;;;1.55;1.30;;;3.60;99.90;;;;;;4954451;28;20312;-90
2022/12/06 02:46:33;;;;;;;1.20;1.10;;;3.60;99.90;;;;;;4954524;28;20296;-90
2022/12/06 02:49:05;;;;;;;1.15;1.10;;;3.60;99.90;;;;;;4954849;28;20264;-90
2022/12/06 02:51:36;;;;;;;3.50;2.08;;;3.60;99.90;;;;;;4954806;29;20304;-90
2022/12/06 02:54:09;;;;;;;4.45;3.10;;;3.60;99.90;;;;;;4954662;28;20312;-89
2022/12/06 02:56:37;;;;;;;6.82;2.25;;;3.60;99.90;;;;;;4954682;29;20212;-90
2022/12/06 02:59:05;;;;;;;0.70;0.68;;;3.60;99.90;;;;;;4954611;28;20325;-91
2022/12/06 03:01:38;;;;;;;5.85;2.15;;;3.60;99.90;;;;;;4959796;29;20215;-90
2022/12/06 03:04:45;;;;;;;1.02;0.98;;;3.60;99.90;;;;;;4959152;28;20224;-89
2022/12/06 03:07:27;;;;;;;1.17;1.10;;;3.60;99.90;;;;;;4959519;29;20223;-91
2022/12/06 03:10:26;;;;;;;0.80;0.80;;;3.60;99.90;;;;;;4958357;29;20296;-90
2022/12/06 03:13:05;;;;;;;0.70;0.70;;;3.60;99.90;;;;;;4958199;28;20283;-90
2022/12/06 03:15:44;;;;;;;0.80;0.80;;;3.70;99.90;;;;;;4958738;28;20208;-89
2022/12/06 03:18:19;;;;;;;2.63;1.80;;;3.60;99.90;;;;;;4957741;29;20267;-90
2022/12/06 03:20:52;;;;;;;2.22;2.03;;;3.70;99.90;;;;;;4957911;29;20272;-90
2022/12/06 03:23:26;;;;;;;1.13;1.13;;;3.70;99.90;;;;;;4957927;28;20269;-90
2022/12/06 03:25:57;;;;;;;1.02;1.02;;;3.70;99.90;;;;;;4958172;29;20220;-90
2022/12/06 03:28:27;;;;;;;1.05;0.90;;;3.70;99.90;;;;;;4958078;28;20304;-89
2022/12/06 03:31:00;;;;;;;1.55;1.45;;;3.60;99.90;;;;;;4957943;29;20209;-90
2022/12/06 03:33:33;;;;;;;1.23;1.20;;;3.70;99.90;;;;;;4957914;28;20235;-90
2022/12/06 03:36:02;;;;;;;1.70;1.60;;;3.70;99.90;;;;;;4957862;29;20300;-89
2022/12/06 03:38:35;;;;;;;1.60;1.50;;;3.70;99.90;;;;;;4957483;29;20300;-90
2022/12/06 03:41:07;;;;;;;1.60;1.50;;;3.80;99.90;;;;;;4957809;29;20292;-89
2022/12/06 03:43:35;;;;;;;0.98;0.98;;;3.80;99.90;;;;;;4957475;28;20233;-89
2022/12/06 03:46:10;;;;;;;1.55;1.45;;;3.80;99.90;;;;;;4957570;28;20213;-89
2022/12/06 03:48:44;;;;;;;1.70;1.60;;;3.80;99.90;;;;;;4957299;29;20272;-89
2022/12/06 03:51:18;;;;;;;2.03;1.83;;;3.80;99.90;;;;;;4957424;29;20209;-89
2022/12/06 03:53:48;;;;;;;1.85;1.75;;;3.80;99.90;;;;;;4957466;28;20295;-88
2022/12/06 03:56:17;;;;;;;1.92;1.83;;;3.80;99.90;;;;;;4957757;29;20201;-89
2022/12/06 03:58:45;;;;;;;1.73;1.63;;;3.80;99.90;;;;;;4957356;29;20288;-89
2022/12/06 04:01:14;;;;;;;2.10;2.00;;;3.90;99.90;;;;;;4957750;29;20247;-89
2022/12/06 04:03:44;;;;;;;2.80;2.60;;;3.90;99.90;;;;;;4956808;28;20252;-89
2022/12/06 04:06:13;;;;;;;1.77;1.67;;;3.90;99.90;;;;;;4957414;29;20211;-89
2022/12/06 04:08:41;;;;;;;1.35;1.35;;;3.90;99.90;;;;;;4957036;29;20204;-89
2022/12/06 04:11:09;;;;;;;1.95;1.85;;;3.90;99.90;;;;;;4956244;28;20301;-89
2022/12/06 04:13:37;;;;;;;2.95;1.77;;;3.90;99.90;;;;;;4957066;28;20244;-88
2022/12/06 04:18:09;;;;;;;1.70;1.60;;;3.90;99.90;;;;;;4957064;29;20288;-88
2022/12/06 04:18:56;;;;;;;1.52;1.42;;;4.00;99.90;;;;;;4957024;28;20209;-89
2022/12/06 04:24:10;;;;;;;1.42;1.33;;;4.00;99.90;;;;;;4956751;28;20233;-88
2022/12/06 04:26:38;;;;;;;1.67;1.58;;;4.00;99.90;;;;;;4957184;29;20293;-88
2022/12/06 04:40:11;;;;;;;1.55;1.45;;;4.20;99.90;;;;;;4957069;29;20209;-95
2022/12/06 04:45:24;;;;;;;1.63;1.52;;;4.20;99.90;;;;;;4957751;29;20209;-94
2022/12/06 04:47:53;;;;;;;1.88;1.77;;;4.30;99.90;;;;;;4957581;29;20317;-95
2022/12/06 04:50:23;;;;;;;1.30;1.30;;;4.30;99.90;;;;;;4957660;29;20233;-95
2022/12/06 04:52:51;;;;;;;1.10;1.10;;;4.30;99.90;;;;;;4956811;28;20208;-94
2022/12/06 04:55:20;;;;;;;1.60;1.50;;;4.30;99.90;;;;;;4956726;29;20248;-95
2022/12/06 04:57:48;;;;;;;1.58;1.48;;;4.30;99.90;;;;;;4957055;28;20252;-94
2022/12/06 05:00:17;;;;;;;0.93;0.93;;;4.30;99.90;;;;;;4957089;29;20265;-94
2022/12/06 05:02:45;;;;;;;1.17;1.17;;;4.30;99.90;;;;;;4956759;28;20205;-94
2022/12/06 05:05:13;;;;;;;1.08;1.08;;;4.40;99.90;;;;;;4956744;29;20269;-94
2022/12/06 05:07:43;;;;;;;1.05;1.05;;;4.40;99.90;;;;;;4956783;28;20215;-95
2022/12/06 05:10:12;;;;;;;0.98;0.98;;;4.40;99.90;;;;;;4956719;29;20215;-94
2022/12/06 05:12:40;;;;;;;0.95;0.90;;;4.40;99.90;;;;;;4956387;28;20217;-94
2022/12/06 05:15:09;;;;;;;0.90;0.90;;;4.40;99.90;;;;;;4956903;29;20241;-95
2022/12/06 05:17:42;;;;;;;1.20;1.10;;;4.40;99.90;;;;;;4956210;29;20217;-94
2022/12/06 05:20:13;;;;;;;0.93;0.93;;;4.40;99.90;;;;;;4956748;29;20215;-95
2022/12/06 05:22:43;;;;;;;0.80;0.80;;;4.40;99.90;;;;;;4955783;28;20209;-95
2022/12/06 05:25:11;;;;;;;0.82;0.82;;;4.50;99.90;;;;;;4956295;28;20219;-94
2022/12/06 05:27:39;;;;;;;0.93;0.90;;;4.50;99.90;;;;;;4956646;28;20258;-95
2022/12/06 05:30:09;;;;;;;0.73;0.73;;;4.50;99.90;;;;;;4956037;29;20220;-95
2022/12/06 05:32:39;;;;;;;0.80;0.80;;;4.50;99.90;;;;;;4955957;28;20239;-94
2022/12/06 05:35:08;;;;;;;2.53;1.17;;;4.40;99.90;;;;;;4955567;29;20280;-88
2022/12/06 05:37:36;;;;;;;1.33;1.23;;;4.40;99.90;;;;;;4955482;29;20220;-88
2022/12/06 05:40:07;;;;;;;1.05;1.05;;;4.40;99.90;;;;;;4955829;29;20301;-87
2022/12/06 05:42:36;;;;;;;2.40;1.85;;;4.40;99.90;;;;;;4965690;28;20245;-94
2022/12/06 05:45:05;;;;;;;1.20;1.10;;;4.40;99.90;;;;;;4959722;29;20228;-95
2022/12/06 05:47:34;;;;;;;1.10;1.10;;;4.40;99.90;;;;;;4957440;29;20252;-96
2022/12/06 05:50:02;;;;;;;1.17;1.15;;;4.40;99.90;;;;;;4956751;28;20209;-95
2022/12/06 05:52:30;;;;;;;0.82;0.82;;;4.40;99.90;;;;;;4955737;29;20232;-96
2022/12/06 05:54:59;;;;;;;0.80;0.80;;;4.40;99.90;;;;;;4955836;28;20231;-96
2022/12/06 05:57:28;;;;;;;1.00;1.00;;;4.40;99.90;;;;;;4955783;29;20209;-96
2022/12/06 05:59:57;;;;;;;1.10;1.10;;;4.40;99.90;;;;;;4956365;28;20205;-96
2022/12/06 06:02:26;;;;;;;1.05;1.05;;;4.40;99.90;;;;;;4955411;29;20233;-96
2022/12/06 06:04:54;;;;;;;1.70;1.60;;;4.40;99.90;;;;;;4955540;28;20232;-96
2022/12/06 06:07:23;;;;;;;1.20;1.20;;;4.40;99.90;;;;;;4955662;29;20251;-96
2022/12/06 06:09:51;;;;;;;1.67;1.58;;;4.50;99.90;;;;;;4956134;29;20300;-96
2022/12/06 06:12:19;;;;;;;2.25;2.08;;;4.50;99.90;;;;;;4955020;28;20251;-94
2022/12/06 06:14:49;;;;;;;1.48;1.40;;;4.50;99.90;;;;;;4955438;28;20253;-94
2022/12/06 06:17:17;;;;;;;1.55;1.45;;;4.50;99.90;;;;;;4955728;28;20236;-95
2022/12/06 06:19:46;;;;;;;1.77;1.67;;;4.40;99.90;;;;;;4955197;29;20205;-94
2022/12/06 06:22:21;;;;;;;2.42;2.22;;;4.50;99.90;;;;;;4955579;29;20205;-94
2022/12/06 06:24:50;;;;;;;1.30;1.25;;;4.50;99.90;;;;;;4954952;28;20321;-96
2022/12/06 06:27:18;;;;;;;3.20;2.65;;;4.50;99.90;;;;;;4955202;29;20213;-93
2022/12/06 06:29:51;;;;;;;2.05;1.90;;;4.40;99.90;;;;;;4955458;29;20252;-96
2022/12/06 06:32:19;;;;;;;2.20;2.00;;;4.40;99.90;;;;;;4955049;29;20232;-94
2022/12/06 06:34:48;;;;;;;2.10;1.52;;;4.40;99.90;;;;;;4954338;28;20232;-93
2022/12/06 06:37:16;;;;;;;2.70;2.47;;;4.40;99.90;;;;;;4954477;28;20205;-94
2022/12/06 06:39:44;;;;;;;1.92;1.75;;;4.40;99.90;;;;;;4954432;28;20217;-93
2022/12/06 06:42:13;;;;;;;1.88;1.77;;;4.40;99.90;;;;;;4954694;29;20292;-92
2022/12/06 06:44:41;;;;;;;1.67;1.58;;;4.40;99.90;;;;;;4954383;28;20233;-93
2022/12/06 06:47:11;;;;;;;2.35;2.17;;;4.40;99.90;;;;;;4954574;29;20213;-93
2022/12/06 06:49:40;;;;;;;1.92;1.83;;;4.40;99.90;;;;;;4954410;28;20316;-94
2022/12/06 06:52:08;;;;;;;1.92;1.83;;;4.30;99.90;;;;;;4954689;29;20237;-94
2022/12/06 06:54:36;;;;;;;2.40;2.15;;;4.30;99.90;;;;;;4954149;28;20268;-96
2022/12/06 06:57:05;;;;;;;1.83;1.73;;;4.30;99.90;;;;;;4954023;29;20268;-94
2022/12/06 06:59:33;;;;;;;2.10;2.00;;;4.30;99.90;;;;;;4954559;29;20205;-94
2022/12/06 07:02:01;;;;;;;2.10;2.00;;;4.30;99.90;;;;;;4954364;29;20209;-95
2022/12/06 07:04:31;;;;;;;2.00;1.90;;;4.30;99.90;;;;;;4954520;28;20229;-94
2022/12/06 07:07:00;;;;;;;1.90;1.80;;;4.30;99.90;;;;;;4954125;28;20260;-94
2022/12/06 07:09:28;;;;;;;3.17;2.53;;;4.30;99.90;;;;;;4954966;28;20313;-94
2022/12/06 07:11:56;;;;;;;2.25;2.05;;;4.30;99.90;;;;;;4954746;29;20272;-94
2022/12/06 07:14:24;;;;;;;1.90;1.80;;;4.30;99.90;;;;;;4954418;28;20299;-94
2022/12/06 07:16:53;;;;;;;2.15;2.05;;;4.30;99.90;;;;;;4954164;29;20248;-95
2022/12/06 07:19:21;;;;;;;2.03;1.92;;;4.20;99.90;;;;;;4954025;28;20276;-94
2022/12/06 07:21:51;;;;;;;2.30;2.10;;;4.20;99.90;;;;;;4954386;29;20264;-94
2022/12/06 07:24:19;;;;;;;2.47;2.28;;;4.20;99.90;;;;;;4953574;28;20229;-93
2022/12/06 07:26:48;;;;;;;2.75;2.55;;;4.10;99.90;;;;;;4954047;28;20205;-94
2022/12/06 07:29:16;;;;;;;3.85;3.08;;;4.10;99.90;;;;;;4954473;29;20276;-94
2022/12/06 07:31:45;;;;;;;2.42;2.22;;;4.10;99.90;;;;;;4954160;29;20296;-93
2022/12/06 07:34:17;;;;;;;2.20;2.00;;;4.10;99.90;;;;;;4954254;28;20269;-93
2022/12/06 07:36:46;;;;;;;2.38;2.25;;;4.00;99.90;;;;;;4953268;29;20209;-93
2022/12/06 07:39:16;;;;;;;2.50;2.30;;;4.10;99.90;;;;;;4953669;29;20292;-95
2022/12/06 07:47:15;;;;;;;1.80;1.70;;;4.10;99.90;;;;;;4957215;28;20213;-95
2022/12/06 07:49:44;;;;;;;2.75;2.50;;;4.10;99.90;;;;;;4957222;29;20209;-95
2022/12/06 07:52:12;;;;;;;2.53;2.33;;;4.10;99.90;;;;;;4957728;29;20205;-95
2022/12/06 07:54:42;;;;;;;1.92;1.80;;;4.10;99.90;;;;;;4957639;29;20224;-95
2022/12/06 07:57:10;;;;;;;2.58;2.25;;;4.10;99.90;;;;;;4957605;29;20209;-95
2022/12/06 07:59:39;;;;;;;4.65;2.38;;;4.10;99.90;;;;;;4958191;29;20213;-94
2022/12/06 08:02:08;;;;;;;3.17;2.47;;;4.10;99.90;;;;;;4957779;29;20308;-95
2022/12/06 08:04:36;;;;;;;2.28;2.17;;;4.10;99.90;;;;;;4958028;29;20283;-94
2022/12/06 08:07:04;;;;;;;7.30;2.72;;;4.10;99.90;;;;;;4957616;29;20213;-95
2022/12/06 08:09:33;;;;;;;2.30;2.10;;;4.10;99.90;;;;;;4957624;29;20221;-95
2022/12/06 08:12:03;;;;;;;2.05;1.85;;;4.10;99.90;;;;;;4958964;29;20241;-94
2022/12/06 08:14:31;;;;;;;2.58;2.03;;;4.10;99.90;;;;;;4957739;29;20248;-95
2022/12/06 08:17:00;;;;;;;2.65;2.47;;;4.10;99.90;;;;;;4957748;29;20205;-95
2022/12/06 08:19:28;;;;;;;2.42;2.22;;;4.10;99.90;;;;;;4957682;29;20213;-95
2022/12/06 08:21:57;;;;;;;1.90;1.80;;;4.10;99.90;;;;;;4957626;29;20221;-95
2022/12/06 08:24:25;;;;;;;2.22;2.08;;;4.10;99.90;;;;;;4957341;29;20248;-95
2022/12/06 08:26:54;;;;;;;1.85;1.75;;;4.10;99.90;;;;;;4957085;29;20276;-95
2022/12/06 08:29:25;;;;;;;2.03;1.92;;;4.10;99.90;;;;;;4957098;29;20280;-95
2022/12/06 08:31:53;;;;;;;2.40;2.20;;;4.10;99.90;;;;;;4955755;29;20287;-95
2022/12/06 08:34:22;;;;;;;2.35;2.17;;;4.10;99.90;;;;;;4958452;28;20391;-95
2022/12/06 08:36:50;;;;;;;3.05;2.75;;;4.10;99.90;;;;;;4956670;29;20201;-95
2022/12/06 08:39:18;;;;;;;2.13;1.98;;;4.10;99.90;;;;;;4943394;29;20210;-95
2022/12/06 08:41:57;;;;;;;3.17;2.78;;;4.10;99.90;;;;;;4937474;29;20223;-95
2022/12/06 08:44:28;;;;;;;2.38;2.13;;;4.10;99.90;;;;;;4950724;29;20217;-95
2022/12/06 08:46:58;;;;;;;1.95;1.85;;;4.10;99.90;;;;;;4956910;29;20208;-96
2022/12/06 08:49:28;;;;;;;1.85;1.67;;;4.10;99.90;;;;;;4956819;29;20212;-95
2022/12/06 08:51:59;;;;;;;3.65;2.33;;;4.10;99.90;;;;;;4956724;29;20201;-95
2022/12/06 08:54:28;;;;;;;2.55;2.03;;;4.10;99.90;;;;;;4956312;28;20302;-94
2022/12/06 08:56:56;;;;;;;2.28;2.13;;;4.10;99.90;;;;;;4956665;28;20248;-96
2022/12/06 08:59:25;;;;;;;2.40;2.20;;;4.10;99.90;;;;;;4958405;28;20213;-94
2022/12/06 09:01:54;;;;;;;2.67;2.47;;;4.10;99.90;;;;;;4964112;29;20292;-95
2022/12/06 09:04:23;;;;;;;2.92;2.53;;;4.10;99.90;;;;;;4964183;28;20248;-95
2022/12/06 09:06:51;;;;;;;2.67;2.40;;;4.20;99.90;;;;;;4961328;29;20217;-95
2022/12/06 09:09:20;;;;;;;2.50;2.33;;;4.10;99.90;;;;;;4963078;29;20212;-95
2022/12/06 09:11:50;;;;;;;2.90;2.63;;;4.20;99.90;;;;;;4963599;29;20260;-94
2022/12/06 09:14:19;;;;;;;2.80;2.55;;;4.20;99.90;;;;;;4963175;29;20292;-95
2022/12/06 09:16:50;;;;;;;2.60;2.40;;;4.20;99.90;;;;;;4957111;29;20218;-95
2022/12/06 09:19:21;;;;;;;2.63;2.42;;;4.20;99.90;;;;;;4957117;29;20307;-95
2022/12/06 09:21:49;;;;;;;3.55;3.22;;;4.10;99.90;;;;;;4956891;29;20241;-95
2022/12/06 09:24:20;;;;;;;2.75;2.55;;;4.10;99.90;;;;;;4956642;28;20256;-95
2022/12/06 09:26:49;;;;;;;5.15;3.53;;;4.10;99.90;;;;;;4955970;29;20324;-95
2022/12/06 09:29:18;;;;;;;3.67;2.97;;;4.10;99.90;;;;;;4956552;28;20205;-96
2022/12/06 09:31:47;;;;;;;2.78;2.58;;;4.10;99.90;;;;;;4955969;29;20273;-96
2022/12/06 09:34:17;;;;;;;3.35;3.00;;;4.10;99.90;;;;;;4956205;29;20235;-94
2022/12/06 09:36:51;;;;;;;3.50;3.20;;;4.10;99.90;;;;;;4955150;28;20193;-94
2022/12/06 09:39:23;;;;;;;2.60;2.40;;;4.20;99.90;;;;;;4956079;29;20212;-95
2022/12/06 09:42:26;;;;;;;3.15;2.85;;;4.10;99.90;;;;;;4956186;29;20209;-95
2022/12/06 09:45:14;;;;;;;2.88;2.67;;;4.10;99.90;;;;;;4951424;29;20324;-94
2022/12/06 09:48:00;;;;;;;2.80;2.50;;;4.20;99.90;;;;;;4956030;29;20210;-91
2022/12/06 09:50:38;;;;;;;3.15;2.85;;;4.10;99.90;;;;;;4958343;29;20233;-93
2022/12/06 09:53:17;;;;;;;3.03;2.80;;;4.10;99.90;;;;;;4955085;29;20225;-94
2022/12/06 09:55:56;;;;;;;2.58;2.38;;;4.20;99.90;;;;;;4956640;29;20228;-95
2022/12/06 09:58:38;;;;;;;2.50;2.35;;;4.20;99.90;;;;;;4955658;29;20205;-92
2022/12/06 10:01:16;;;;;;;3.20;3.00;;;4.20;99.90;;;;;;4955583;29;20201;-94
2022/12/06 10:04:10;;;;;;;4.57;3.55;;;4.30;99.90;;;;;;4955099;28;20259;-93
2022/12/06 10:06:46;;;;;;;3.20;2.90;;;4.30;99.90;;;;;;4955284;29;20275;-94
2022/12/06 10:09:39;;;;;;;2.95;2.75;;;4.40;99.90;;;;;;4953872;28;20217;-94
2022/12/06 10:12:23;;;;;;;3.10;2.80;;;4.50;99.90;;;;;;4951886;29;20233;-93
2022/12/06 10:15:10;;;;;;;3.45;3.08;;;4.50;99.90;;;;;;4954818;29;20320;-93
2022/12/06 10:17:52;;;;;;;3.60;3.30;;;4.60;99.90;;;;;;4954413;29;20224;-93
2022/12/06 10:20:31;;;;;;;3.15;2.90;;;4.70;99.90;;;;;;4954244;29;20232;-93
2022/12/06 10:23:08;;;;;;;3.00;2.80;;;4.80;99.90;;;;;;4954451;28;20248;-93
2022/12/06 10:25:42;;;;;;;3.35;3.08;;;5.00;99.90;;;;;;4954147;29;20233;-94
2022/12/06 10:28:14;;;;;;;3.90;3.53;;;5.10;99.90;;;;;;4954627;29;20252;-93
2022/12/06 10:30:51;;;;;;;3.50;3.22;;;5.20;99.90;;;;;;4955093;29;20297;-93
2022/12/06 10:33:29;;;;;;;4.88;4.43;;;5.20;99.90;;;;;;4954807;28;20225;-93
2022/12/06 10:36:01;;;;;;;4.15;3.75;;;5.40;99.90;;;;;;4955266;29;20205;-94
2022/12/06 10:38:36;;;;;;;4.57;4.18;;;5.30;99.90;;;;;;4957247;29;20246;-92
2022/12/06 10:41:13;;;;;;;4.28;3.90;;;5.30;99.90;;;;;;4954476;29;20206;-92
2022/12/06 10:43:53;;;;;;;4.10;3.80;;;5.40;99.90;;;;;;4954249;29;20301;-93
2022/12/06 10:49:22;;;;;;;5.28;4.70;;;5.50;99.90;;;;;;4954100;29;20197;-93
2022/12/06 10:51:57;;;;;;;5.00;4.60;;;5.50;99.90;;;;;;4953671;29;20196;-93
2022/12/06 10:54:30;;;;;;;5.57;5.07;;;5.50;99.90;;;;;;4954315;29;20287;-93
2022/12/06 10:57:05;;;;;;;5.00;4.57;;;5.50;99.90;;;;;;4954045;28;20237;-93
2022/12/06 10:59:39;;;;;;;5.30;4.90;;;5.40;99.90;;;;;;4958953;28;20236;-93
2022/12/06 11:02:23;;;;;;;4.68;4.28;;;5.40;99.90;;;;;;4954297;29;20205;-93
2022/12/06 11:04:55;;;;;;;8.50;5.93;;;5.40;99.90;;;;;;4937680;29;20225;-93
2022/12/06 11:07:27;;;;;;;7.88;6.65;;;5.30;99.90;;;;;;4952296;29;20217;-92
2022/12/06 11:09:59;;;;;;;6.05;5.55;;;5.20;99.90;;;;;;4954535;29;20224;-91
2022/12/06 11:12:33;;;;;;;6.22;5.65;;;5.30;99.90;;;;;;4955201;28;20236;-92
2022/12/06 11:15:13;;;;;;;10.85;7.78;;;5.20;99.90;;;;;;4952495;28;20205;-92
2022/12/06 11:17:46;;;;;;;8.05;7.35;;;5.30;99.90;;;;;;4953667;29;20224;-92
2022/12/06 11:20:24;;;;;;;7.32;6.70;;;5.40;99.90;;;;;;4953908;28;20303;-92
2022/12/06 11:23:05;;;;;;;9.35;8.27;;;5.60;99.90;;;;;;4957799;28;20213;-92
2022/12/06 11:26:00;;;;;;;11.23;7.95;;;5.90;99.90;;;;;;4957159;29;20213;-92
2022/12/06 11:28:36;;;;;;;10.00;8.95;;;6.10;99.90;;;;;;4957287;29;20241;-93
2022/12/06 11:31:25;;;;;;;8.23;7.50;;;6.10;99.90;;;;;;4957398;29;20229;-92
2022/12/06 11:33:54;;;;;;;8.85;7.97;;;6.10;99.90;;;;;;4957284;29;20245;-92
2022/12/06 11:36:24;;;;;;;8.32;7.47;;;6.10;99.90;;;;;;4957697;29;20269;-92
2022/12/06 11:38:53;;;;;;;8.60;7.70;;;6.10;99.90;;;;;;4957351;28;20264;-93
2022/12/06 11:41:23;;;;;;;10.23;6.65;;;6.20;99.90;;;;;;4957486;29;20296;-92
2022/12/06 11:43:54;;;;;;;6.03;5.47;;;6.30;99.90;;;;;;4956974;29;20296;-93
2022/12/06 11:46:23;;;;;;;5.40;4.90;;;6.30;99.90;;;;;;4957085;29;20221;-92
2022/12/06 11:48:53;;;;;;;4.90;4.50;;;6.20;99.90;;;;;;4956846;29;20209;-92
2022/12/06 11:51:23;;;;;;;5.40;4.90;;;6.10;99.90;;;;;;4957141;29;20224;-92
2022/12/06 11:53:59;;;;;;;5.38;4.85;;;6.10;99.90;;;;;;4957267;29;20225;-93
2022/12/06 11:56:30;;;;;;;14.43;5.47;;;6.20;99.90;;;;;;4957483;29;20204;-92
2022/12/06 11:59:23;;;;;;;5.60;5.10;;;6.60;99.90;;;;;;4956723;29;20312;-92
2022/12/06 12:01:54;;;;;;;6.03;5.43;;;6.90;99.90;;;;;;4957114;29;20220;-92
2022/12/06 12:04:25;;;;;;;6.05;5.45;;;6.90;99.90;;;;;;4957483;28;20314;-91
2022/12/06 12:06:58;;;;;;;7.00;5.97;;;6.80;99.90;;;;;;4956843;29;20259;-92
2022/12/06 12:09:33;;;;;;;5.68;5.07;;;6.60;99.90;;;;;;4957062;29;20209;-93
2022/12/06 12:12:06;;;;;;;6.50;5.90;;;6.40;99.90;;;;;;4957490;29;20209;-92
2022/12/06 12:14:47;;;;;;;6.00;5.47;;;6.30;99.90;;;;;;4937966;29;20366;-93
2022/12/06 12:17:52;;;;;;;6.88;6.28;;;6.20;99.90;;;;;;4929708;29;20237;-93
2022/12/06 12:20:26;;;;;;;7.35;6.63;;;6.20;99.90;;;;;;4937219;29;20214;-94
2022/12/06 12:23:00;;;;;;;6.85;6.25;;;6.30;99.90;;;;;;4937852;29;20222;-94
2022/12/06 12:25:31;;;;;;;8.38;7.03;;;6.30;99.90;;;;;;4937290;29;20237;-95
2022/12/06 12:28:00;;;;;;;6.75;6.15;;;6.30;99.90;;;;;;4955210;29;20224;-94
2022/12/06 12:30:34;;;;;;;14.23;6.97;;;6.30;99.90;;;;;;4956498;29;20432;-95
2022/12/06 12:33:17;;;;;;;6.15;5.60;;;6.30;99.90;;;;;;4955487;28;20312;-93
2022/12/06 12:35:52;;;;;;;6.47;5.88;;;6.40;99.90;;;;;;4955262;28;20304;-94
2022/12/06 12:38:32;;;;;;;6.47;5.68;;;6.40;99.90;;;;;;4956420;29;20223;-94
2022/12/06 12:41:04;;;;;;;6.00;5.07;;;6.60;99.90;;;;;;4956440;29;20273;-94
2022/12/06 12:43:34;;;;;;;6.28;5.43;;;6.70;99.90;;;;;;4956384;29;20284;-94
2022/12/06 12:46:23;;;;;;;6.60;5.50;;;6.90;99.90;;;;;;4956606;29;20205;-95
2022/12/06 12:48:52;;;;;;;8.30;5.78;;;7.00;99.90;;;;;;4953313;29;20271;-96
2022/12/06 12:51:33;;;;;;;5.40;4.90;;;7.10;99.90;;;;;;4945667;28;20224;-95
2022/12/06 12:54:03;;;;;;;6.13;5.50;;;7.10;99.90;;;;;;4956631;28;20296;-95
2022/12/06 12:56:35;;;;;;;5.00;4.53;;;7.30;99.90;;;;;;4956565;29;20256;-94
2022/12/06 12:59:08;;;;;;;7.53;5.57;;;7.50;99.90;;;;;;4956604;29;20288;-88
2022/12/06 13:01:46;;;;;;;5.97;5.45;;;7.80;99.90;;;;;;4955740;29;20233;-90
2022/12/06 13:04:41;;;;;;;5.95;5.45;;;7.90;99.90;;;;;;4955686;28;20311;-90
2022/12/06 13:07:18;;;;;;;8.43;4.90;;;8.20;99.90;;;;;;4936355;29;20288;-90
2022/12/06 13:09:53;;;;;;;6.65;5.15;;;8.80;99.90;;;;;;4954942;29;20251;-91
2022/12/06 13:12:29;;;;;;;5.32;4.70;;;9.70;99.90;;;;;;4955550;29;20256;-90
2022/12/06 13:15:02;;;;;;;5.57;4.63;;;9.80;99.90;;;;;;4955071;28;20240;-91
2022/12/06 13:17:36;;;;;;;3.75;3.45;;;10.00;99.90;;;;;;4955876;29;20202;-91
2022/12/06 13:20:23;;;;;;;3.60;3.30;;;10.20;99.90;;;;;;4955272;29;20201;-90
2022/12/06 13:22:54;;;;;;;3.55;3.25;;;10.10;99.90;;;;;;4955725;29;20201;-91
2022/12/06 13:25:23;;;;;;;6.95;4.50;;;10.20;99.90;;;;;;4955443;29;20213;-90
2022/12/06 13:27:55;;;;;;;5.35;3.95;;;10.30;99.90;;;;;;4954424;29;20221;-90
2022/12/06 13:30:36;;;;;;;4.65;4.25;;;10.10;99.90;;;;;;4955458;28;20213;-91
2022/12/06 13:33:14;;;;;;;4.10;3.70;;;9.50;99.90;;;;;;4955078;29;20256;-90
2022/12/06 13:35:57;;;;;;;4.00;3.70;;;9.30;99.90;;;;;;4955156;29;20291;-88
2022/12/06 13:38:30;;;;;;;4.82;4.20;;;8.90;99.90;;;;;;4955047;29;20193;-91
2022/12/06 13:40:59;;;;;;;5.22;4.72;;;8.50;99.90;;;;;;4952856;29;20210;-93
2022/12/06 13:43:49;;;;;;;4.78;4.38;;;8.30;99.90;;;;;;4954516;28;20252;-90
2022/12/06 13:46:24;;;;;;;5.22;4.72;;;8.20;99.90;;;;;;4947175;29;20209;-92
2022/12/06 13:48:55;;;;;;;5.40;4.90;;;7.90;99.90;;;;;;4954540;29;20228;-92
2022/12/06 13:51:46;;;;;;;4.70;4.30;;;7.80;99.90;;;;;;4954802;29;20201;-92